Time;durP1;ratioP1;P1;durP2;ratioP2;P2;SDS_P1;SDS_P2;PMS_P1;PMS_P2;Temp;Humidity;BMP_temperature;BMP_pressure;BME280_temperature;BME280_humidity;BME280_pressure;Samples;Min_cycle;Max_cycle;Signal;HPM_P1;HPM_P2
2021/12/28 00:01:04;;;;;;;5.25;1.08;;;16.70;99.90;;;;;;4969273;28;20046;-70
2021/12/28 00:03:32;;;;;;;9.32;1.13;;;16.70;99.90;;;;;;4978483;28;20019;-74
2021/12/28 00:06:00;;;;;;;6.18;1.13;;;16.70;99.90;;;;;;4975597;28;20014;-73
2021/12/28 00:08:28;;;;;;;11.48;1.38;;;16.70;99.90;;;;;;4990963;28;20109;-72
2021/12/28 00:10:56;;;;;;;4.28;0.85;;;16.70;99.90;;;;;;4993807;28;20030;-73
2021/12/28 00:13:24;;;;;;;1.98;0.60;;;16.80;99.90;;;;;;4992623;28;20382;-69
2021/12/28 00:18:23;;;;;;;4.07;0.98;;;16.90;99.90;;;;;;4995956;28;20037;-72
2021/12/28 00:20:56;;;;;;;3.97;0.75;;;16.90;99.90;;;;;;4995887;28;20077;-69
2021/12/28 00:23:31;;;;;;;3.63;1.00;;;16.90;99.90;;;;;;4995650;28;20471;-68
2021/12/28 00:25:59;;;;;;;4.18;1.35;;;17.10;99.90;;;;;;4995054;28;20101;-68
2021/12/28 00:28:27;;;;;;;4.38;0.93;;;17.20;99.90;;;;;;4995811;28;20416;-72
2021/12/28 00:30:55;;;;;;;6.18;1.33;;;17.10;99.90;;;;;;4995776;28;20029;-72
2021/12/28 00:33:24;;;;;;;8.10;0.95;;;17.10;99.90;;;;;;4995463;28;20026;-68
2021/12/28 00:35:52;;;;;;;7.78;0.75;;;17.00;99.90;;;;;;4995369;28;20487;-70
2021/12/28 00:38:23;;;;;;;6.75;1.13;;;17.00;99.90;;;;;;4995514;28;20081;-70
2021/12/28 00:40:56;;;;;;;3.58;1.00;;;17.00;99.90;;;;;;4995401;28;20029;-69
2021/12/28 00:43:24;;;;;;;6.07;0.93;;;17.00;99.90;;;;;;4995492;28;20022;-68
2021/12/28 00:45:51;;;;;;;8.48;1.25;;;16.90;99.90;;;;;;4995222;28;20050;-72
2021/12/28 00:48:19;;;;;;;5.03;0.70;;;16.90;99.90;;;;;;4995194;28;20054;-70
2021/12/28 00:50:47;;;;;;;3.03;1.33;;;16.80;99.90;;;;;;4993416;28;20026;-74
2021/12/28 00:53:14;;;;;;;8.27;1.65;;;16.80;99.90;;;;;;4993478;28;20077;-72
2021/12/28 00:55:42;;;;;;;7.97;1.38;;;16.60;99.90;;;;;;4994238;28;20027;-72
2021/12/28 00:58:09;;;;;;;6.15;0.77;;;16.40;99.90;;;;;;4993059;28;20046;-73
2021/12/28 01:00:39;;;;;;;5.65;1.10;;;16.20;99.90;;;;;;4994894;28;20026;-69
2021/12/28 01:03:08;;;;;;;5.68;1.23;;;16.10;99.90;;;;;;4998269;28;20026;-69
2021/12/28 01:05:36;;;;;;;8.52;1.65;;;16.30;99.90;;;;;;4997466;28;20026;-69
2021/12/28 01:08:05;;;;;;;6.32;0.90;;;16.30;99.90;;;;;;4994055;28;20070;-73
2021/12/28 01:10:43;;;;;;;4.80;0.73;;;16.40;99.90;;;;;;4992322;28;20375;-70
2021/12/28 01:13:11;;;;;;;5.78;1.23;;;16.60;99.90;;;;;;4990404;28;20105;-70
2021/12/28 01:15:40;;;;;;;10.13;1.27;;;16.70;99.90;;;;;;4984603;28;20379;-70
2021/12/28 01:18:08;;;;;;;5.63;1.08;;;16.90;99.90;;;;;;4992281;28;20562;-73
2021/12/28 01:20:35;;;;;;;7.20;0.93;;;17.20;99.90;;;;;;4981691;28;20035;-70
2021/12/28 01:23:03;;;;;;;9.90;0.85;;;17.40;99.90;;;;;;4973873;28;20058;-70
2021/12/28 01:25:31;;;;;;;7.97;0.88;;;17.40;99.90;;;;;;4977618;28;20025;-72
2021/12/28 01:27:58;;;;;;;9.30;0.65;;;17.30;99.90;;;;;;4993398;28;20049;-72
2021/12/28 01:30:27;;;;;;;7.80;1.35;;;17.30;99.90;;;;;;4993510;28;20491;-70
2021/12/28 01:32:59;;;;;;;7.57;1.45;;;17.40;99.90;;;;;;4993161;28;20030;-70
2021/12/28 01:35:27;;;;;;;7.18;1.25;;;17.60;99.90;;;;;;4991249;28;20113;-70
2021/12/28 01:37:54;;;;;;;3.00;0.88;;;17.60;99.90;;;;;;4993287;28;20487;-70
2021/12/28 01:40:29;;;;;;;7.88;1.10;;;17.70;99.90;;;;;;4993194;28;20472;-71
2021/12/28 01:43:14;;;;;;;3.67;1.10;;;17.90;99.90;;;;;;4993432;28;20034;-72
2021/12/28 01:45:49;;;;;;;4.75;1.30;;;17.70;99.90;;;;;;4992900;28;20485;-72
2021/12/28 01:48:21;;;;;;;3.35;0.55;;;17.60;99.90;;;;;;4993118;28;20138;-69
2021/12/28 01:50:51;;;;;;;3.50;0.80;;;17.60;99.90;;;;;;4992889;28;20058;-68
2021/12/28 01:53:18;;;;;;;11.20;0.68;;;17.30;99.90;;;;;;4993336;28;20022;-71
2021/12/28 01:55:49;;;;;;;3.50;0.70;;;17.10;99.90;;;;;;4992748;28;20026;-69
2021/12/28 01:58:16;;;;;;;6.45;0.85;;;17.20;99.90;;;;;;4992985;28;20066;-71
2021/12/28 02:00:46;;;;;;;3.97;0.75;;;17.30;99.90;;;;;;4993100;28;20014;-69
2021/12/28 02:03:16;;;;;;;3.83;0.57;;;17.10;99.90;;;;;;4992659;28;20033;-74
2021/12/28 02:05:44;;;;;;;6.05;1.10;;;16.90;99.90;;;;;;4992913;28;20014;-69
2021/12/28 02:08:15;;;;;;;4.80;0.80;;;16.60;99.90;;;;;;4992762;28;20494;-69
2021/12/28 02:10:45;;;;;;;5.70;1.10;;;16.40;99.90;;;;;;4991550;28;20029;-69
2021/12/28 02:13:14;;;;;;;6.60;1.30;;;16.50;99.90;;;;;;4992918;28;20058;-69
2021/12/28 02:15:42;;;;;;;5.80;1.02;;;16.60;99.90;;;;;;4992431;28;20034;-69
2021/12/28 02:18:12;;;;;;;5.13;0.85;;;16.80;99.90;;;;;;4988894;28;20529;-70
2021/12/28 02:20:40;;;;;;;3.40;1.15;;;16.70;99.90;;;;;;4978212;28;20023;-70
2021/12/28 02:23:09;;;;;;;5.95;1.13;;;17.00;99.90;;;;;;4979786;28;20391;-68
2021/12/28 02:25:37;;;;;;;4.45;1.13;;;17.30;99.90;;;;;;4977659;28;20117;-69
2021/12/28 02:28:06;;;;;;;2.88;0.50;;;17.70;99.90;;;;;;4980507;28;20057;-69
2021/12/28 02:30:35;;;;;;;4.75;0.95;;;18.20;99.90;;;;;;4992874;28;20022;-69
2021/12/28 02:33:04;;;;;;;5.68;0.82;;;18.10;99.90;;;;;;4992777;28;20029;-69
2021/12/28 02:35:32;;;;;;;5.63;1.27;;;17.90;99.90;;;;;;4990771;28;20565;-69
2021/12/28 02:37:59;;;;;;;5.00;0.85;;;17.60;99.90;;;;;;4991898;28;20030;-70
2021/12/28 02:40:29;;;;;;;2.53;0.75;;;17.20;99.90;;;;;;4992950;28;20065;-69
2021/12/28 02:42:58;;;;;;;4.88;1.33;;;17.10;99.90;;;;;;4992306;28;20072;-69
2021/12/28 02:45:28;;;;;;;1.80;0.50;;;16.80;99.90;;;;;;4991120;28;20023;-67
2021/12/28 02:47:56;;;;;;;4.68;0.63;;;16.90;99.90;;;;;;4992304;28;20516;-67
2021/12/28 02:50:31;;;;;;;3.25;0.75;;;16.70;99.90;;;;;;4992897;28;20105;-67
2021/12/28 02:52:59;;;;;;;3.75;0.60;;;16.80;99.90;;;;;;4992717;28;20029;-68
2021/12/28 02:55:31;;;;;;;4.38;0.95;;;16.90;99.90;;;;;;4992515;28;20062;-67
2021/12/28 02:58:05;;;;;;;4.88;0.75;;;16.90;99.90;;;;;;4985625;28;20057;-70
2021/12/28 03:00:53;;;;;;;4.50;0.80;;;17.00;99.90;;;;;;4992306;28;20475;-68
2021/12/28 03:03:23;;;;;;;7.72;1.35;;;17.10;99.90;;;;;;4991889;28;20210;-70
2021/12/28 03:05:54;;;;;;;5.03;1.13;;;17.40;99.90;;;;;;4990525;28;20014;-67
2021/12/28 03:08:24;;;;;;;2.40;0.73;;;17.50;99.90;;;;;;4991922;28;20029;-69
2021/12/28 03:10:53;;;;;;;3.83;1.48;;;17.90;99.90;;;;;;4991900;28;20038;-68
2021/12/28 03:13:27;;;;;;;5.93;1.27;;;17.90;99.90;;;;;;4994483;28;20022;-72
2021/12/28 03:15:55;;;;;;;2.65;0.82;;;18.10;99.90;;;;;;4992384;28;20018;-68
2021/12/28 03:18:22;;;;;;;4.65;1.25;;;18.20;99.90;;;;;;4995535;28;20034;-67
2021/12/28 03:20:50;;;;;;;6.78;0.70;;;18.40;99.90;;;;;;4995987;28;20018;-67
2021/12/28 03:23:20;;;;;;;10.18;1.48;;;18.70;99.90;;;;;;4995688;28;20088;-68
2021/12/28 03:25:48;;;;;;;4.85;1.08;;;18.80;99.90;;;;;;4995764;28;20054;-73
2021/12/28 03:28:23;;;;;;;4.45;0.60;;;18.90;99.90;;;;;;4995662;28;20109;-68
2021/12/28 03:30:52;;;;;;;9.25;1.45;;;18.50;99.90;;;;;;4995713;28;20545;-68
2021/12/28 03:33:22;;;;;;;6.18;1.05;;;18.70;99.90;;;;;;4995697;28;20031;-67
2021/12/28 03:35:50;;;;;;;3.28;0.70;;;18.60;99.90;;;;;;4995604;28;20018;-68
2021/12/28 03:38:18;;;;;;;5.35;0.80;;;18.50;99.90;;;;;;4995171;28;20042;-68
2021/12/28 03:40:46;;;;;;;5.40;1.05;;;18.90;99.90;;;;;;4995712;28;20018;-68
2021/12/28 03:43:14;;;;;;;3.30;0.77;;;18.90;99.90;;;;;;4995756;28;20018;-68
2021/12/28 03:45:41;;;;;;;2.10;0.50;;;19.20;99.90;;;;;;4995179;28;20050;-68
2021/12/28 03:48:09;;;;;;;5.50;1.45;;;19.40;99.90;;;;;;4995300;28;20026;-67
2021/12/28 03:50:37;;;;;;;5.05;0.85;;;19.70;99.90;;;;;;4995526;28;20053;-68
2021/12/28 03:53:06;;;;;;;5.20;1.08;;;19.40;99.90;;;;;;4995463;28;20022;-71
2021/12/28 03:55:34;;;;;;;6.63;1.10;;;18.80;99.90;;;;;;4995455;28;20043;-68
2021/12/28 03:58:03;;;;;;;3.08;0.50;;;19.20;99.90;;;;;;4995042;28;20096;-68
2021/12/28 04:00:41;;;;;;;4.50;0.70;;;19.50;99.90;;;;;;4994608;28;20022;-68
2021/12/28 04:03:09;;;;;;;4.43;0.77;;;19.90;99.90;;;;;;4995615;28;20024;-74
2021/12/28 04:05:41;;;;;;;2.35;0.47;;;20.40;99.90;;;;;;4995185;28;20022;-70
2021/12/28 04:08:08;;;;;;;7.00;0.60;;;19.90;99.90;;;;;;4994834;28;20022;-68
2021/12/28 04:10:51;;;;;;;2.10;0.55;;;19.60;99.90;;;;;;4995328;28;20029;-68
2021/12/28 04:13:19;;;;;;;3.03;0.43;;;19.60;99.90;;;;;;4994713;28;20105;-69
2021/12/28 04:15:47;;;;;;;3.05;0.32;;;19.50;99.90;;;;;;4995458;28;20028;-69
2021/12/28 04:18:16;;;;;;;2.03;0.80;;;19.40;99.90;;;;;;4995026;28;20038;-68
2021/12/28 04:20:44;;;;;;;5.97;0.80;;;19.40;99.90;;;;;;4994976;28;20022;-69
2021/12/28 04:23:11;;;;;;;2.08;0.82;;;19.40;99.90;;;;;;4995070;28;20109;-68
2021/12/28 04:25:39;;;;;;;1.00;0.28;;;19.20;99.90;;;;;;4993859;28;20078;-68
2021/12/28 04:28:06;;;;;;;5.40;0.85;;;19.10;99.90;;;;;;4994766;28;20440;-70
2021/12/28 04:30:34;;;;;;;6.35;0.93;;;19.10;99.90;;;;;;4994914;28;20097;-68
2021/12/28 04:33:01;;;;;;;3.78;0.90;;;19.10;99.90;;;;;;4994677;28;20109;-69
2021/12/28 04:35:28;;;;;;;4.80;0.70;;;19.00;99.90;;;;;;4994848;28;20379;-72
2021/12/28 04:37:56;;;;;;;6.18;1.10;;;18.80;99.90;;;;;;4994702;28;20045;-72
2021/12/28 04:40:23;;;;;;;9.50;0.70;;;18.70;99.90;;;;;;4994554;28;20077;-73
2021/12/28 04:42:51;;;;;;;4.10;0.70;;;18.80;99.90;;;;;;4994217;28;20110;-72
2021/12/28 04:45:18;;;;;;;4.50;1.20;;;18.90;99.90;;;;;;4994345;28;20468;-69
2021/12/28 04:47:49;;;;;;;2.35;0.52;;;18.80;99.90;;;;;;4994558;28;20104;-69
2021/12/28 04:50:16;;;;;;;4.97;0.90;;;18.60;99.90;;;;;;4994879;28;20471;-70
2021/12/28 04:52:44;;;;;;;3.08;0.55;;;18.70;99.90;;;;;;4993579;28;20368;-70
2021/12/28 04:55:15;;;;;;;2.40;0.77;;;18.70;99.90;;;;;;4995090;28;20592;-67
2021/12/28 04:57:44;;;;;;;2.75;0.65;;;18.80;99.90;;;;;;4994930;28;20037;-67
2021/12/28 05:00:16;;;;;;;4.07;0.60;;;18.90;99.90;;;;;;4995109;28;20026;-67
2021/12/28 05:02:43;;;;;;;1.58;0.60;;;18.80;99.90;;;;;;4994583;28;20089;-68
2021/12/28 05:05:12;;;;;;;2.25;0.65;;;18.80;99.90;;;;;;4979325;28;20086;-70
2021/12/28 05:07:40;;;;;;;1.83;0.75;;;18.50;99.90;;;;;;4975557;28;20031;-71
2021/12/28 05:10:09;;;;;;;3.20;0.75;;;18.50;99.90;;;;;;4992261;28;20109;-71
2021/12/28 05:12:37;;;;;;;3.65;0.60;;;18.50;99.90;;;;;;4992367;28;20037;-71
2021/12/28 05:15:05;;;;;;;2.22;0.80;;;18.50;99.90;;;;;;4994330;28;20014;-69
2021/12/28 05:17:33;;;;;;;6.05;1.23;;;18.50;99.90;;;;;;4994219;28;20088;-69
2021/12/28 05:20:01;;;;;;;3.33;0.85;;;18.60;99.90;;;;;;4996680;28;20027;-69
2021/12/28 05:22:28;;;;;;;4.25;1.17;;;18.60;99.90;;;;;;4993768;28;20026;-69
2021/12/28 05:24:55;;;;;;;3.22;1.30;;;18.70;99.90;;;;;;4994579;28;20076;-69
2021/12/28 05:27:23;;;;;;;6.45;0.80;;;18.70;99.90;;;;;;4994757;28;20057;-70
2021/12/28 05:29:51;;;;;;;3.38;0.70;;;18.90;99.90;;;;;;4987061;28;20014;-69
2021/12/28 05:32:18;;;;;;;4.38;0.88;;;19.40;99.90;;;;;;4974288;28;20679;-70
2021/12/28 05:34:46;;;;;;;8.68;1.23;;;19.70;99.90;;;;;;4974730;28;20364;-70
2021/12/28 05:37:14;;;;;;;4.25;0.55;;;19.90;99.90;;;;;;4974495;28;20383;-69
2021/12/28 05:39:41;;;;;;;3.15;0.68;;;19.90;99.90;;;;;;4973642;28;20038;-69
2021/12/28 05:42:10;;;;;;;5.20;1.50;;;19.80;99.90;;;;;;4973549;28;20036;-68
2021/12/28 05:44:38;;;;;;;4.03;1.13;;;19.60;99.90;;;;;;4973207;28;20026;-69
2021/12/28 05:47:06;;;;;;;8.45;1.25;;;19.50;99.90;;;;;;4974746;28;20100;-69
2021/12/28 05:49:34;;;;;;;8.30;1.42;;;19.50;99.90;;;;;;4979756;28;20069;-69
2021/12/28 05:52:02;;;;;;;11.80;1.10;;;19.30;99.90;;;;;;4984789;28;20026;-68
2021/12/28 05:54:30;;;;;;;3.80;1.08;;;19.20;99.90;;;;;;4991638;28;20409;-68
2021/12/28 05:56:58;;;;;;;3.13;0.85;;;18.60;99.90;;;;;;4991532;28;20049;-70
2021/12/28 05:59:25;;;;;;;6.43;1.60;;;18.20;99.90;;;;;;4992041;28;20117;-69
2021/12/28 06:01:53;;;;;;;3.20;0.98;;;18.00;99.90;;;;;;4988104;28;20027;-68
2021/12/28 06:04:21;;;;;;;6.90;1.38;;;17.90;99.90;;;;;;4974177;28;20030;-68
2021/12/28 06:06:48;;;;;;;4.53;0.82;;;17.90;99.90;;;;;;4978824;28;20026;-69
2021/12/28 06:09:16;;;;;;;4.38;0.57;;;18.00;99.90;;;;;;4981634;28;20046;-67
2021/12/28 06:11:44;;;;;;;2.40;0.63;;;18.30;99.90;;;;;;4973680;28;20077;-69
2021/12/28 06:14:12;;;;;;;4.63;1.27;;;18.50;99.90;;;;;;4975482;28;20475;-68
2021/12/28 06:16:39;;;;;;;6.50;1.27;;;18.50;99.90;;;;;;4980510;28;20030;-67
2021/12/28 06:19:08;;;;;;;8.05;1.27;;;18.50;99.90;;;;;;4993228;28;20105;-70
2021/12/28 06:21:37;;;;;;;5.25;1.00;;;18.40;99.90;;;;;;4987498;28;20035;-69
2021/12/28 06:24:06;;;;;;;8.23;0.95;;;18.10;99.90;;;;;;4972070;28;20031;-68
2021/12/28 06:26:35;;;;;;;6.50;1.25;;;17.90;99.90;;;;;;4971402;28;20123;-68
2021/12/28 06:29:06;;;;;;;3.90;0.75;;;18.00;99.90;;;;;;4971639;28;20027;-71
2021/12/28 06:31:34;;;;;;;8.63;1.35;;;17.80;99.90;;;;;;4971791;28;20031;-68
2021/12/28 06:34:04;;;;;;;4.13;1.00;;;17.80;99.90;;;;;;4971567;28;20019;-69
2021/12/28 06:36:32;;;;;;;7.00;1.63;;;17.50;99.90;;;;;;4986364;28;20030;-69
2021/12/28 06:39:00;;;;;;;8.43;0.73;;;17.20;99.90;;;;;;4971019;28;20668;-70
2021/12/28 06:41:28;;;;;;;7.90;1.23;;;17.00;99.90;;;;;;4972115;28;20058;-69
2021/12/28 06:43:56;;;;;;;7.93;1.35;;;16.90;99.90;;;;;;4974068;28;20023;-68
2021/12/28 06:46:24;;;;;;;6.28;0.57;;;16.90;99.90;;;;;;4974468;28;20065;-69
2021/12/28 06:48:51;;;;;;;6.43;1.15;;;17.00;99.90;;;;;;4973819;28;20491;-69
2021/12/28 06:51:19;;;;;;;8.45;1.38;;;17.00;99.90;;;;;;4977416;28;20106;-70
2021/12/28 06:53:47;;;;;;;6.00;0.80;;;17.00;99.90;;;;;;4977063;28;20468;-69
2021/12/28 06:56:15;;;;;;;6.13;1.40;;;17.10;99.90;;;;;;4977255;28;20431;-69
2021/12/28 06:58:43;;;;;;;5.65;1.30;;;17.10;99.90;;;;;;4992138;28;20067;-69
2021/12/28 07:01:11;;;;;;;6.95;1.30;;;17.00;99.90;;;;;;4979697;28;20488;-68
2021/12/28 07:03:39;;;;;;;7.93;0.95;;;17.10;99.90;;;;;;4977184;28;20050;-69
2021/12/28 07:06:07;;;;;;;9.60;1.33;;;17.20;99.90;;;;;;4976839;28;20081;-70
2021/12/28 07:08:35;;;;;;;5.95;1.63;;;17.20;99.90;;;;;;4977398;28;20157;-69
2021/12/28 07:11:04;;;;;;;6.05;0.98;;;17.20;99.90;;;;;;4976659;28;20031;-69
2021/12/28 07:13:32;;;;;;;9.30;1.48;;;17.30;99.90;;;;;;4976411;28;20034;-69
2021/12/28 07:15:59;;;;;;;4.57;0.70;;;17.30;99.90;;;;;;4976715;28;20054;-68
2021/12/28 07:18:27;;;;;;;3.45;1.08;;;17.30;99.90;;;;;;4976818;28;20062;-69
2021/12/28 07:20:58;;;;;;;4.30;1.15;;;17.30;99.90;;;;;;4977179;28;20125;-69
2021/12/28 07:23:26;;;;;;;5.45;1.20;;;17.40;99.90;;;;;;4976340;28;20035;-68
2021/12/28 07:25:54;;;;;;;6.78;1.30;;;17.30;99.90;;;;;;4976927;28;20038;-69
2021/12/28 07:28:23;;;;;;;4.53;1.50;;;17.30;99.90;;;;;;4992875;28;20034;-68
2021/12/28 07:30:52;;;;;;;6.72;1.40;;;17.40;99.90;;;;;;4994741;28;20022;-69
2021/12/28 07:33:21;;;;;;;3.30;1.05;;;17.40;99.90;;;;;;4994694;28;20026;-68
2021/12/28 07:35:49;;;;;;;5.38;1.33;;;17.50;99.90;;;;;;4994479;28;20041;-68
2021/12/28 07:38:16;;;;;;;4.18;0.95;;;17.50;99.90;;;;;;4975698;28;20050;-70
2021/12/28 07:40:45;;;;;;;4.68;1.38;;;17.60;99.90;;;;;;4990424;28;20027;-68
2021/12/28 07:43:13;;;;;;;4.20;0.88;;;17.60;99.90;;;;;;4974918;28;20161;-69
2021/12/28 07:45:41;;;;;;;6.43;0.73;;;17.60;99.90;;;;;;4976242;28;20053;-69
2021/12/28 07:48:09;;;;;;;7.85;1.33;;;17.60;99.90;;;;;;4976404;28;20506;-69
2021/12/28 07:50:37;;;;;;;3.45;0.80;;;17.40;99.90;;;;;;4976504;28;20018;-67
2021/12/28 07:53:05;;;;;;;9.27;1.48;;;17.40;99.90;;;;;;4976246;28;20106;-71
2021/12/28 07:55:32;;;;;;;8.88;1.10;;;17.30;99.90;;;;;;4976407;28;20019;-71
2021/12/28 07:58:00;;;;;;;4.82;1.02;;;17.30;99.90;;;;;;4976539;28;20134;-69
2021/12/28 08:00:28;;;;;;;5.20;1.23;;;17.30;99.90;;;;;;4993334;28;20037;-70
2021/12/28 08:02:57;;;;;;;3.45;1.08;;;17.20;99.90;;;;;;4989220;28;20529;-69
2021/12/28 08:05:24;;;;;;;6.50;0.65;;;17.00;99.90;;;;;;4976071;28;20069;-68
2021/12/28 08:07:52;;;;;;;4.78;0.93;;;16.80;99.90;;;;;;4975568;28;20022;-71
2021/12/28 08:10:21;;;;;;;6.97;0.90;;;16.60;99.90;;;;;;4976064;28;20015;-71
2021/12/28 08:12:52;;;;;;;7.70;1.42;;;16.50;99.90;;;;;;4977376;28;20102;-69
2021/12/28 08:15:21;;;;;;;4.40;0.95;;;16.50;99.90;;;;;;4992105;28;20022;-68
2021/12/28 08:17:49;;;;;;;6.68;1.33;;;16.60;99.90;;;;;;4993758;28;20030;-69
2021/12/28 08:20:18;;;;;;;7.85;1.27;;;16.60;99.90;;;;;;4993743;28;20383;-70
2021/12/28 08:22:47;;;;;;;2.97;0.95;;;16.60;99.90;;;;;;4992739;28;20101;-70
2021/12/28 08:25:18;;;;;;;5.93;1.00;;;16.60;99.90;;;;;;4980571;28;20023;-70
2021/12/28 08:27:46;;;;;;;10.63;1.65;;;16.70;99.90;;;;;;4974168;28;20073;-69
2021/12/28 08:30:16;;;;;;;4.15;1.08;;;16.80;99.90;;;;;;4975355;28;20042;-72
2021/12/28 08:32:45;;;;;;;8.48;1.30;;;16.80;99.90;;;;;;4975624;28;20432;-72
2021/12/28 08:35:14;;;;;;;7.57;0.93;;;16.80;99.90;;;;;;4975671;28;20093;-70
2021/12/28 08:37:42;;;;;;;4.80;0.90;;;16.80;99.90;;;;;;4980847;28;20026;-69
2021/12/28 08:40:13;;;;;;;7.40;1.75;;;16.80;99.90;;;;;;4975440;28;20026;-72
2021/12/28 08:42:41;;;;;;;3.95;0.82;;;16.80;99.90;;;;;;4975514;28;20050;-70
2021/12/28 08:45:09;;;;;;;4.25;1.13;;;16.80;99.90;;;;;;4974800;28;20034;-71
2021/12/28 08:47:37;;;;;;;5.53;0.85;;;16.80;99.90;;;;;;4975833;28;20130;-70
2021/12/28 08:50:08;;;;;;;4.40;0.80;;;16.90;99.90;;;;;;4992556;28;20085;-69
2021/12/28 08:52:37;;;;;;;7.20;1.15;;;16.80;99.90;;;;;;4994549;28;20026;-70
2021/12/28 08:55:06;;;;;;;3.63;1.00;;;16.80;99.90;;;;;;4992871;28;20030;-69
2021/12/28 08:57:35;;;;;;;7.88;1.25;;;16.80;99.90;;;;;;4994482;28;20578;-73
2021/12/28 09:00:05;;;;;;;3.08;0.68;;;16.80;99.90;;;;;;4994323;28;20058;-72
2021/12/28 09:02:33;;;;;;;5.90;0.85;;;16.80;99.90;;;;;;4994360;28;20048;-68
2021/12/28 09:05:01;;;;;;;9.13;0.98;;;16.70;99.90;;;;;;4994001;28;20050;-68
2021/12/28 09:07:28;;;;;;;3.40;0.88;;;16.70;99.90;;;;;;4993731;28;20061;-69
2021/12/28 09:09:56;;;;;;;4.25;0.82;;;16.60;99.90;;;;;;4993993;28;20023;-71
2021/12/28 09:12:24;;;;;;;6.85;1.00;;;16.60;99.90;;;;;;4993101;28;20430;-70
2021/12/28 09:14:51;;;;;;;9.00;1.10;;;16.60;99.90;;;;;;4994103;28;20026;-69
2021/12/28 09:17:19;;;;;;;6.40;1.30;;;16.60;99.90;;;;;;4994552;28;20027;-69
2021/12/28 09:19:47;;;;;;;5.40;1.42;;;16.60;99.90;;;;;;4994752;28;20027;-69
2021/12/28 09:22:15;;;;;;;2.92;0.93;;;16.50;99.90;;;;;;4994736;28;20360;-69
2021/12/28 09:24:42;;;;;;;6.90;0.85;;;16.50;99.90;;;;;;4994817;28;20023;-69
2021/12/28 09:27:10;;;;;;;10.45;1.20;;;16.50;99.90;;;;;;4994459;28;20046;-69
2021/12/28 09:29:42;;;;;;;7.00;1.08;;;16.50;99.90;;;;;;4994630;28;20026;-69
2021/12/28 09:32:10;;;;;;;5.82;1.58;;;16.50;99.90;;;;;;4994726;28;20969;-69
2021/12/28 09:34:38;;;;;;;2.88;0.55;;;16.40;99.90;;;;;;4994694;28;20034;-69
2021/12/28 09:37:06;;;;;;;4.72;0.82;;;16.50;99.90;;;;;;4994478;28;20467;-69
2021/12/28 09:39:34;;;;;;;4.15;0.90;;;16.40;99.90;;;;;;4994550;28;20076;-69
2021/12/28 09:42:03;;;;;;;7.15;0.77;;;16.40;99.90;;;;;;4994358;28;20029;-69
2021/12/28 09:44:33;;;;;;;2.90;0.82;;;16.40;99.90;;;;;;4993492;28;20022;-69
2021/12/28 09:47:03;;;;;;;2.63;0.85;;;16.40;99.90;;;;;;4991020;28;20319;-70
2021/12/28 09:49:31;;;;;;;7.93;0.82;;;16.40;99.90;;;;;;4994211;28;20368;-70
2021/12/28 09:52:01;;;;;;;9.13;1.10;;;16.50;99.90;;;;;;4994290;28;20093;-70
2021/12/28 09:54:30;;;;;;;5.10;0.70;;;16.40;99.90;;;;;;4993845;28;20022;-69
2021/12/28 09:57:00;;;;;;;5.45;0.77;;;16.40;99.90;;;;;;4994195;28;20058;-69
2021/12/28 09:59:30;;;;;;;3.35;0.95;;;16.40;99.90;;;;;;4994295;28;20045;-69
2021/12/28 10:02:02;;;;;;;9.05;1.50;;;16.40;99.90;;;;;;4994363;28;20535;-69
2021/12/28 10:04:30;;;;;;;4.30;0.88;;;16.40;99.90;;;;;;4994080;28;20118;-70
2021/12/28 10:07:20;;;;;;;7.72;0.85;;;16.40;99.90;;;;;;4993497;28;20031;-68
2021/12/28 10:09:48;;;;;;;14.60;1.33;;;16.40;99.90;;;;;;4994084;28;20046;-69
2021/12/28 10:12:31;;;;;;;5.32;0.90;;;16.40;99.90;;;;;;4994052;28;20022;-69
2021/12/28 10:15:01;;;;;;;8.60;0.93;;;16.40;99.90;;;;;;4993905;28;20110;-69
2021/12/28 10:17:34;;;;;;;5.28;1.67;;;16.40;99.90;;;;;;4993516;28;20113;-69
2021/12/28 10:20:09;;;;;;;11.55;1.15;;;16.40;99.90;;;;;;4993020;28;20050;-72
2021/12/28 10:22:58;;;;;;;5.30;0.95;;;16.40;99.90;;;;;;4993175;28;20542;-73
2021/12/28 10:25:27;;;;;;;4.15;0.77;;;16.40;99.90;;;;;;4992302;28;20518;-69
2021/12/28 10:27:59;;;;;;;8.02;0.95;;;16.40;99.90;;;;;;4993260;28;20030;-70
2021/12/28 10:30:28;;;;;;;5.65;1.20;;;16.30;99.90;;;;;;4993031;28;20101;-69
2021/12/28 10:33:07;;;;;;;2.58;0.90;;;16.30;99.90;;;;;;4992888;28;20027;-69
2021/12/28 10:35:39;;;;;;;4.72;1.00;;;16.20;99.90;;;;;;4992850;28;20101;-71
2021/12/28 10:38:13;;;;;;;9.05;1.20;;;16.20;99.90;;;;;;4992839;28;20041;-69
2021/12/28 10:40:51;;;;;;;7.53;0.73;;;16.10;99.90;;;;;;4991104;28;20022;-69
2021/12/28 10:43:24;;;;;;;4.13;1.17;;;16.00;99.90;;;;;;4993074;28;20546;-69
2021/12/28 10:45:59;;;;;;;3.67;0.70;;;16.00;99.90;;;;;;4985759;28;20058;-70
2021/12/28 10:48:38;;;;;;;;;;;15.90;99.90;;;;;;4974068;28;20388;-71
2021/12/28 10:51:15;;;;;;;5.13;0.95;;;15.90;99.90;;;;;;4973346;28;19997;-69
2021/12/28 10:56:39;;;;;;;8.00;1.08;;;15.90;99.90;;;;;;4973974;28;20027;-70
2021/12/28 10:59:12;;;;;;;6.63;1.00;;;15.90;99.90;;;;;;4974074;28;20121;-70
2021/12/28 11:01:42;;;;;;;7.10;0.90;;;15.80;99.90;;;;;;4974081;28;20026;-69
2021/12/28 11:04:12;;;;;;;6.35;1.42;;;15.80;99.90;;;;;;4973640;28;20031;-69
2021/12/28 11:06:46;;;;;;;7.57;1.25;;;15.80;99.90;;;;;;4974044;28;20035;-73
2021/12/28 11:09:25;;;;;;;6.88;1.63;;;15.90;99.90;;;;;;4973991;28;20059;-69
2021/12/28 11:11:55;;;;;;;5.43;1.15;;;15.80;99.90;;;;;;4973486;28;20034;-69
2021/12/28 11:14:27;;;;;;;3.25;0.65;;;15.80;99.90;;;;;;4973131;28;20429;-69
2021/12/28 11:17:00;;;;;;;4.57;0.80;;;15.80;99.90;;;;;;4974030;28;20027;-69
2021/12/28 11:19:31;;;;;;;3.58;0.98;;;15.80;99.90;;;;;;4973348;28;20476;-69
2021/12/28 11:22:05;;;;;;;6.70;1.05;;;15.90;99.90;;;;;;4979234;28;20542;-69
2021/12/28 11:24:36;;;;;;;6.20;1.45;;;15.70;99.90;;;;;;4992576;28;20383;-69
2021/12/28 11:27:06;;;;;;;6.50;0.90;;;15.70;99.90;;;;;;4992284;28;20125;-69
2021/12/28 11:29:38;;;;;;;7.05;1.08;;;15.70;99.90;;;;;;4992127;28;20471;-69
2021/12/28 11:32:19;;;;;;;3.58;0.75;;;15.80;99.90;;;;;;4992381;28;20062;-69
2021/12/28 11:34:48;;;;;;;7.53;1.30;;;15.80;99.90;;;;;;4992276;28;20097;-69
2021/12/28 11:37:22;;;;;;;4.07;1.70;;;15.80;99.90;;;;;;4995776;28;20578;-70
2021/12/28 11:39:59;;;;;;;6.63;1.05;;;15.80;99.90;;;;;;4995624;28;20533;-72
2021/12/28 11:42:27;;;;;;;5.57;1.23;;;15.80;99.90;;;;;;4995872;28;20022;-70
2021/12/28 11:44:55;;;;;;;3.58;0.70;;;15.80;99.90;;;;;;4995749;28;20026;-70
2021/12/28 11:47:23;;;;;;;10.25;0.70;;;15.70;99.90;;;;;;4995560;28;20030;-69
2021/12/28 11:49:54;;;;;;;7.93;1.17;;;15.70;99.90;;;;;;4995549;28;20167;-70
2021/12/28 11:52:22;;;;;;;4.40;0.98;;;15.70;99.90;;;;;;4994699;28;20435;-70
2021/12/28 11:54:51;;;;;;;5.15;0.93;;;15.70;99.90;;;;;;4995512;28;20019;-72
2021/12/28 11:57:22;;;;;;;3.08;1.02;;;15.60;99.90;;;;;;4995453;28;20446;-69
2021/12/28 12:00:08;;;;;;;6.55;1.15;;;15.60;99.90;;;;;;4995257;28;20056;-71
2021/12/28 12:02:45;;;;;;;4.13;1.15;;;15.50;99.90;;;;;;4995456;28;20022;-69
2021/12/28 12:05:23;;;;;;;4.45;0.88;;;15.50;99.90;;;;;;4994940;28;20023;-70
2021/12/28 12:08:12;;;;;;;6.32;0.90;;;15.50;99.90;;;;;;4995396;28;20026;-66
2021/12/28 12:10:43;;;;;;;5.18;1.15;;;15.50;99.90;;;;;;4995332;28;20080;-70
2021/12/28 12:13:17;;;;;;;7.63;1.02;;;15.50;99.90;;;;;;4994227;28;20113;-68
2021/12/28 12:15:48;;;;;;;4.28;1.00;;;15.50;99.90;;;;;;4995216;28;20030;-70
2021/12/28 12:18:19;;;;;;;3.25;1.00;;;15.60;99.90;;;;;;4994551;28;20046;-67
2021/12/28 12:21:08;;;;;;;7.00;1.40;;;15.50;99.90;;;;;;4995031;28;20033;-66
2021/12/28 12:23:51;;;;;;;2.80;1.13;;;15.50;99.90;;;;;;4994854;28;20411;-67
2021/12/28 12:26:32;;;;;;;6.72;0.80;;;15.50;99.90;;;;;;4993861;28;20046;-66
2021/12/28 12:29:00;;;;;;;3.65;0.93;;;15.50;99.90;;;;;;4994916;28;20145;-67
2021/12/28 12:31:37;;;;;;;4.97;0.98;;;15.40;99.90;;;;;;4994763;28;20022;-66
2021/12/28 12:34:25;;;;;;;2.05;0.75;;;15.40;99.90;;;;;;4993195;28;20034;-69
2021/12/28 12:36:54;;;;;;;5.32;0.80;;;15.40;99.90;;;;;;4994752;28;20025;-68
2021/12/28 12:39:23;;;;;;;4.10;0.80;;;15.30;99.90;;;;;;4995208;28;20033;-69
2021/12/28 12:41:54;;;;;;;4.70;0.95;;;15.30;99.90;;;;;;4994733;28;20025;-69
2021/12/28 12:44:24;;;;;;;6.10;0.65;;;15.20;99.90;;;;;;4994791;28;20475;-70
2021/12/28 12:46:55;;;;;;;5.25;0.90;;;15.20;99.90;;;;;;4993678;28;20096;-72
2021/12/28 12:49:31;;;;;;;2.45;0.68;;;15.10;99.90;;;;;;4994673;28;20108;-72
2021/12/28 12:52:02;;;;;;;2.88;0.82;;;15.10;99.90;;;;;;4994480;28;20026;-69
2021/12/28 12:54:41;;;;;;;4.53;0.63;;;15.00;99.90;;;;;;4994341;28;20105;-70
2021/12/28 12:57:11;;;;;;;2.85;0.50;;;14.90;99.90;;;;;;4994298;28;20081;-69
2021/12/28 12:59:41;;;;;;;3.28;0.90;;;14.80;99.90;;;;;;4993479;28;20050;-69
2021/12/28 13:02:13;;;;;;;3.83;0.95;;;14.70;99.90;;;;;;4992585;28;20022;-74
2021/12/28 13:04:44;;;;;;;4.85;0.82;;;14.70;99.90;;;;;;4993834;28;20014;-68
2021/12/28 13:07:17;;;;;;;6.63;0.80;;;14.70;99.90;;;;;;4992069;28;20029;-68